createdAt,value
2022-11-04T00:00:33.318Z,22.34
2022-11-04T00:03:02.396Z,22.27
2022-11-04T00:05:31.661Z,22.21
2022-11-04T00:08:19.293Z,22.22
2022-11-04T00:11:20.719Z,22.17
2022-11-04T00:13:49.949Z,22.15
2022-11-04T00:16:37.874Z,22.20
2022-11-04T00:19:06.872Z,22.17
2022-11-04T00:21:54.429Z,22.16
2022-11-04T00:24:42.042Z,22.10
2022-11-04T00:27:30.362Z,22.02
2022-11-04T00:30:00.174Z,22.10
2022-11-04T00:32:47.695Z,22.10
2022-11-04T00:35:17.023Z,22.04
2022-11-04T00:37:46.920Z,22.12
2022-11-04T00:40:18.613Z,22.20
2022-11-04T00:42:47.833Z,22.15
2022-11-04T00:45:16.971Z,22.05
2022-11-04T00:47:46.004Z,22.09
2022-11-04T00:50:15.180Z,22.13
2022-11-04T00:52:44.474Z,22.15
2022-11-04T00:55:13.810Z,22.14
2022-11-04T00:57:42.974Z,22.12
2022-11-04T01:00:17.037Z,22.16
2022-11-04T01:02:50.753Z,22.10
2022-11-04T01:05:23.321Z,22.10
2022-11-04T01:07:54.945Z,22.09
2022-11-04T01:10:26.459Z,22.05
2022-11-04T01:13:02.076Z,22.10
2022-11-04T01:15:33.051Z,22.04
2022-11-04T01:18:03.335Z,22.03
2022-11-04T01:20:35.024Z,21.96
2022-11-04T01:23:04.905Z,21.88
2022-11-04T01:25:34.507Z,21.87
2022-11-04T01:28:03.951Z,21.92
2022-11-04T01:30:33.460Z,22.05
2022-11-04T01:33:02.561Z,22.10
2022-11-04T01:35:33.792Z,22.21
2022-11-04T01:38:03.214Z,22.22
2022-11-04T01:40:37.388Z,22.26
2022-11-04T01:43:18.490Z,22.39
2022-11-04T01:46:00.575Z,22.51
2022-11-04T01:48:35.880Z,22.55
2022-11-04T01:51:06.326Z,22.46
2022-11-04T01:53:41.556Z,22.26
2022-11-04T01:56:15.431Z,22.25
2022-11-04T01:58:57.301Z,22.39
2022-11-04T02:01:27.131Z,22.29
2022-11-04T02:04:19.332Z,22.33
2022-11-04T02:06:50.710Z,22.41
2022-11-04T02:09:21.663Z,22.39
2022-11-04T02:12:09.284Z,22.42
2022-11-04T02:14:39.668Z,22.49
2022-11-04T02:17:21.072Z,22.75
2022-11-04T02:20:09.482Z,22.70
2022-11-04T02:23:04.645Z,22.79
2022-11-04T02:25:52.160Z,22.73
2022-11-04T02:28:58.595Z,22.95
2022-11-04T02:31:43.545Z,23.01
2022-11-04T02:34:28.213Z,23.11
2022-11-04T02:37:22.113Z,23.21
2022-11-04T02:40:22.030Z,23.24
2022-11-04T02:43:03.746Z,23.34
2022-11-04T02:46:01.288Z,23.46
2022-11-04T02:48:42.936Z,23.53
2022-11-04T02:51:34.090Z,23.67
2022-11-04T02:54:17.424Z,23.78
2022-11-04T02:56:52.210Z,23.67
2022-11-04T02:59:28.956Z,23.79
2022-11-04T03:02:03.842Z,23.77
2022-11-04T03:04:40.163Z,23.72
2022-11-04T03:07:14.554Z,23.77
2022-11-04T03:09:51.421Z,23.80
2022-11-04T03:12:27.340Z,23.83
2022-11-04T03:15:06.489Z,23.85
2022-11-04T03:17:48.760Z,23.84
2022-11-04T03:20:27.257Z,23.87
2022-11-04T03:23:00.803Z,23.79
2022-11-04T03:25:39.884Z,23.98
2022-11-04T03:28:23.518Z,24.11
2022-11-04T03:30:58.048Z,24.15
2022-11-04T03:33:57.666Z,24.41
2022-11-04T03:36:29.525Z,24.44
2022-11-04T03:38:59.439Z,24.58
2022-11-04T03:41:57.733Z,24.88
2022-11-04T03:44:27.973Z,24.76
2022-11-04T03:46:57.748Z,24.89
2022-11-04T03:49:28.477Z,25.04
2022-11-04T03:52:00.062Z,25.22
2022-11-04T03:54:34.055Z,25.30
2022-11-04T03:57:22.164Z,25.57
2022-11-04T04:00:11.800Z,25.68
2022-11-04T04:02:50.524Z,25.55
2022-11-04T04:05:31.508Z,25.75
2022-11-04T04:08:10.629Z,25.79
2022-11-04T04:11:10.560Z,25.87
2022-11-04T04:14:05.500Z,25.94
2022-11-04T04:16:37.606Z,25.89
2022-11-04T04:19:13.492Z,26.04
2022-11-04T04:22:02.316Z,26.07
2022-11-04T04:24:56.182Z,26.14
2022-11-04T04:27:35.045Z,25.99
2022-11-04T04:30:10.186Z,26.22
2022-11-04T04:32:54.655Z,26.15
2022-11-04T04:35:45.460Z,26.24
2022-11-04T04:38:46.838Z,26.44
2022-11-04T04:41:42.775Z,26.50
2022-11-04T04:44:45.344Z,26.62
2022-11-04T04:47:22.795Z,26.58
2022-11-04T04:49:54.173Z,26.43
2022-11-04T04:52:26.024Z,26.48
2022-11-04T04:54:55.745Z,26.41
2022-11-04T04:57:25.479Z,26.52
2022-11-04T04:59:55.186Z,26.52
2022-11-04T05:02:25.047Z,26.54
2022-11-04T05:04:54.488Z,26.58
2022-11-04T05:07:24.689Z,26.63
2022-11-04T05:09:54.353Z,26.59
2022-11-04T05:12:24.001Z,26.59
2022-11-04T05:14:53.356Z,26.72
2022-11-04T05:17:22.637Z,26.88
2022-11-04T05:19:52.401Z,26.97
2022-11-04T05:22:22.279Z,27.04
2022-11-04T05:24:53.302Z,26.99
2022-11-04T05:27:22.865Z,27.19
2022-11-04T05:29:52.767Z,27.23
2022-11-04T05:32:22.833Z,27.33
2022-11-04T05:34:52.118Z,27.41
2022-11-04T05:37:21.987Z,27.47
2022-11-04T05:39:56.849Z,27.51
2022-11-04T05:42:26.697Z,27.55
2022-11-04T05:44:56.813Z,27.38
2022-11-04T05:47:27.558Z,27.48
2022-11-04T05:49:57.636Z,27.68
2022-11-04T05:52:27.297Z,27.79
2022-11-04T05:54:57.036Z,27.94
2022-11-04T05:57:26.633Z,27.97
2022-11-04T05:59:56.831Z,28.11
2022-11-04T06:02:26.685Z,28.09
2022-11-04T06:04:56.395Z,28.12
2022-11-04T06:07:26.330Z,28.30
2022-11-04T06:09:55.956Z,28.38
2022-11-04T06:12:25.760Z,28.44
2022-11-04T06:14:55.428Z,28.47
2022-11-04T06:17:25.546Z,28.43
2022-11-04T06:19:54.896Z,28.50
2022-11-04T06:22:24.278Z,28.66
2022-11-04T06:24:54.036Z,28.68
2022-11-04T06:27:23.563Z,28.73
2022-11-04T06:29:55.286Z,28.84
2022-11-04T06:32:36.688Z,28.94
2022-11-04T06:35:13.512Z,28.90
2022-11-04T06:37:43.077Z,28.98
2022-11-04T06:40:12.786Z,28.93
2022-11-04T06:42:44.078Z,28.97
2022-11-04T06:45:14.441Z,29.08
2022-11-04T06:47:44.773Z,29.00
2022-11-04T06:50:15.973Z,29.20
2022-11-04T06:52:46.379Z,29.29
2022-11-04T06:55:15.880Z,29.32
2022-11-04T06:57:45.389Z,29.32
2022-11-04T07:00:15.310Z,29.38
2022-11-04T07:02:44.847Z,29.49
2022-11-04T07:05:16.420Z,29.44
2022-11-04T07:07:46.079Z,29.48
2022-11-04T07:10:15.291Z,29.47
2022-11-04T07:12:44.769Z,29.59
2022-11-04T07:15:14.468Z,29.63
2022-11-04T07:17:45.433Z,29.68
2022-11-04T07:20:14.647Z,29.76
2022-11-04T07:22:44.307Z,29.76
2022-11-04T07:25:13.432Z,29.65
2022-11-04T07:27:43.290Z,29.77
2022-11-04T07:30:13.381Z,29.86
2022-11-04T07:32:42.673Z,29.90
2022-11-04T07:35:11.843Z,29.88
2022-11-04T07:37:41.344Z,29.92
2022-11-04T07:40:11.575Z,30.00
2022-11-04T07:42:40.802Z,29.98
2022-11-04T07:45:11.459Z,30.07
2022-11-04T07:47:40.917Z,29.95
2022-11-04T07:50:11.352Z,30.06
2022-11-04T07:52:41.376Z,30.08
2022-11-04T07:55:11.999Z,30.21
2022-11-04T07:57:42.117Z,30.14
2022-11-04T08:00:12.795Z,30.20
2022-11-04T08:02:43.233Z,30.19
2022-11-04T08:05:13.053Z,30.18
2022-11-04T08:07:42.273Z,30.19
2022-11-04T08:10:12.119Z,30.13
2022-11-04T08:12:41.231Z,30.34
2022-11-04T08:15:10.783Z,30.41
2022-11-04T08:17:40.010Z,30.34
2022-11-04T08:20:10.908Z,30.37
2022-11-04T08:22:41.184Z,30.48
2022-11-04T08:25:14.436Z,30.43
2022-11-04T08:27:44.271Z,30.44
2022-11-04T08:30:14.434Z,30.49
2022-11-04T08:32:45.343Z,30.48
2022-11-04T08:35:15.219Z,30.58
2022-11-04T08:37:44.622Z,30.30
2022-11-04T08:40:13.659Z,30.52
2022-11-04T08:42:42.989Z,30.54
2022-11-04T08:45:12.245Z,30.59
2022-11-04T08:47:41.553Z,30.55
2022-11-04T08:50:10.876Z,30.58
2022-11-04T08:52:41.328Z,30.49
2022-11-04T08:55:11.931Z,30.54
2022-11-04T08:57:41.157Z,30.45
2022-11-04T09:00:10.916Z,30.52
2022-11-04T09:02:41.561Z,30.47
2022-11-04T09:05:12.222Z,30.63
2022-11-04T09:07:42.152Z,30.57
2022-11-04T09:10:12.661Z,30.67
2022-11-04T09:12:44.367Z,30.67
2022-11-04T09:15:14.438Z,30.53
2022-11-04T09:17:45.506Z,30.58
2022-11-04T09:20:18.178Z,30.44
2022-11-04T09:22:51.471Z,30.53
2022-11-04T09:25:21.636Z,30.49
2022-11-04T09:27:50.739Z,30.37
2022-11-04T09:30:20.301Z,30.55
2022-11-04T09:32:53.001Z,30.45
2022-11-04T09:35:23.939Z,30.40
2022-11-04T09:37:54.123Z,30.40
2022-11-04T09:40:26.558Z,30.61
2022-11-04T09:43:34.993Z,30.52
2022-11-04T09:46:05.220Z,30.60
2022-11-04T09:48:48.980Z,30.63
2022-11-04T09:51:47.943Z,30.62
2022-11-04T09:54:28.447Z,30.58
2022-11-04T09:57:02.099Z,30.44
2022-11-04T09:59:38.829Z,30.29
2022-11-04T10:02:40.312Z,30.34
2022-11-04T10:05:26.526Z,30.43
2022-11-04T10:08:26.664Z,30.63
2022-11-04T10:11:06.501Z,30.35
2022-11-04T10:14:23.083Z,30.52
2022-11-04T10:17:01.174Z,30.38
2022-11-04T10:19:56.740Z,30.62
2022-11-04T10:22:34.490Z,30.57
2022-11-04T10:25:23.140Z,30.66
2022-11-04T10:35:01.931Z,30.62
2022-11-04T10:38:12.339Z,30.58
2022-11-04T10:41:18.025Z,30.35
2022-11-04T10:50:57.933Z,30.33
2022-11-04T10:57:08.370Z,30.14
2022-11-04T10:59:56.993Z,30.15
2022-11-04T11:02:39.260Z,30.16
2022-11-04T11:05:23.734Z,30.09
2022-11-04T11:07:56.292Z,29.98
2022-11-04T11:10:36.153Z,29.96
2022-11-04T11:13:11.417Z,29.90
2022-11-04T11:15:43.413Z,29.80
2022-11-04T11:18:18.709Z,29.75
2022-11-04T11:20:53.062Z,29.84
2022-11-04T11:23:42.137Z,29.72
2022-11-04T11:26:20.418Z,29.62
2022-11-04T11:28:59.351Z,29.53
2022-11-04T11:31:39.144Z,29.48
2022-11-04T11:34:23.565Z,29.41
2022-11-04T11:36:56.626Z,29.26
2022-11-04T11:39:30.100Z,29.25
2022-11-04T11:42:05.443Z,29.20
2022-11-04T11:44:50.321Z,29.14
2022-11-04T11:47:31.567Z,29.08
2022-11-04T11:50:34.413Z,28.99
2022-11-04T11:53:16.369Z,28.92
2022-11-04T11:55:55.519Z,28.80
2022-11-04T12:01:43.687Z,28.60
2022-11-04T12:10:29.970Z,28.37
2022-11-04T12:13:23.623Z,28.23
2022-11-04T12:15:59.841Z,28.02
2022-11-04T12:18:44.111Z,28.06
2022-11-04T12:21:22.345Z,27.99
2022-11-04T12:24:03.310Z,27.94
2022-11-04T12:26:47.649Z,27.76
2022-11-04T12:29:30.801Z,27.84
2022-11-04T12:32:06.155Z,27.82
2022-11-04T12:34:56.403Z,27.84
2022-11-04T12:37:50.197Z,27.79
2022-11-04T12:40:19.414Z,27.60
2022-11-04T12:43:18.326Z,27.64
2022-11-04T12:46:02.735Z,27.58
2022-11-04T12:48:57.433Z,27.49
2022-11-04T12:52:03.124Z,27.48
2022-11-04T12:54:32.664Z,27.30
2022-11-04T12:57:22.849Z,27.35
2022-11-04T13:00:03.549Z,27.34
2022-11-04T13:02:47.908Z,27.32
2022-11-04T13:05:45.241Z,27.22
2022-11-04T13:08:30.556Z,27.20
2022-11-04T13:11:26.049Z,27.20
2022-11-04T13:14:09.882Z,27.23
2022-11-04T13:16:46.162Z,27.15
2022-11-04T13:19:42.853Z,27.20
2022-11-04T13:22:19.782Z,27.13
2022-11-04T13:25:12.465Z,27.09
2022-11-04T13:27:49.579Z,27.11
2022-11-04T13:30:25.095Z,27.02
2022-11-04T13:33:13.236Z,27.12
2022-11-04T13:35:59.435Z,27.08
2022-11-04T13:38:43.693Z,26.99
2022-11-04T13:41:27.172Z,26.91
2022-11-04T13:44:02.795Z,26.91
2022-11-04T13:46:36.409Z,26.79
2022-11-04T13:49:08.717Z,26.79
2022-11-04T13:51:45.606Z,26.76
2022-11-04T13:54:23.929Z,26.78
2022-11-04T13:57:06.830Z,26.80
2022-11-04T13:59:35.738Z,26.87
2022-11-04T14:02:14.413Z,26.75
2022-11-04T14:04:45.199Z,26.66
2022-11-04T14:07:20.250Z,26.65
2022-11-04T14:09:55.561Z,26.67
2022-11-04T14:12:34.169Z,26.68
2022-11-04T14:15:12.868Z,26.68
2022-11-04T14:17:45.336Z,26.50
2022-11-04T14:20:26.739Z,26.58
2022-11-04T14:23:02.373Z,26.51
2022-11-04T14:25:33.992Z,26.37
2022-11-04T14:28:04.903Z,26.36
2022-11-04T14:30:34.015Z,26.38
2022-11-04T14:33:08.193Z,26.33
2022-11-04T14:35:38.139Z,26.21
2022-11-04T14:38:29.667Z,26.28
2022-11-04T14:41:16.825Z,26.30
2022-11-04T14:43:48.480Z,26.09
2022-11-04T14:46:24.331Z,26.16
2022-11-04T14:48:57.066Z,26.12
2022-11-04T14:51:41.033Z,26.16
2022-11-04T14:54:14.281Z,26.16
2022-11-04T14:56:43.542Z,26.05
2022-11-04T14:59:24.664Z,26.14
2022-11-04T15:01:54.875Z,26.01
2022-11-04T15:04:33.422Z,26.11
2022-11-04T15:07:05.552Z,26.01
2022-11-04T15:09:41.379Z,26.00
2022-11-04T15:12:38.636Z,26.04
2022-11-04T15:15:34.854Z,26.06
2022-11-04T15:18:17.028Z,25.98
2022-11-04T15:21:02.352Z,26.04
2022-11-04T15:23:36.267Z,25.96
2022-11-04T15:26:08.756Z,25.91
2022-11-04T15:28:43.153Z,26.02
2022-11-04T15:31:13.209Z,25.86
2022-11-04T15:33:49.146Z,25.89
2022-11-04T15:36:26.801Z,25.92
2022-11-04T15:39:02.433Z,25.86
2022-11-04T15:41:51.947Z,25.83
2022-11-04T15:44:30.428Z,25.87
2022-11-04T15:47:10.229Z,25.83
2022-11-04T15:49:43.074Z,25.74
2022-11-04T15:52:23.319Z,25.84
2022-11-04T15:54:55.838Z,25.76
2022-11-04T15:57:36.291Z,25.90
2022-11-04T16:00:23.405Z,25.79
2022-11-04T16:02:59.516Z,25.75
2022-11-04T16:05:35.231Z,25.75
2022-11-04T16:08:24.191Z,25.78
2022-11-04T16:11:14.165Z,25.77
2022-11-04T16:13:45.491Z,25.64
2022-11-04T16:16:28.413Z,25.70
2022-11-04T16:19:00.015Z,25.60
2022-11-04T16:21:33.131Z,25.78
2022-11-04T16:24:18.245Z,25.60
2022-11-04T16:26:49.760Z,25.53
2022-11-04T16:29:29.376Z,25.56
2022-11-04T16:32:21.103Z,25.60
2022-11-04T16:34:56.053Z,25.52
2022-11-04T16:37:27.087Z,25.38
2022-11-04T16:39:56.746Z,25.39
2022-11-04T16:42:26.467Z,25.41
2022-11-04T16:45:02.903Z,25.50
2022-11-04T16:47:35.493Z,25.35
2022-11-04T16:50:11.202Z,25.33
2022-11-04T16:52:44.186Z,25.27
2022-11-04T16:55:16.360Z,25.23
2022-11-04T16:57:50.956Z,25.25
2022-11-04T17:00:27.913Z,25.24
2022-11-04T17:02:57.602Z,25.12
2022-11-04T17:05:27.336Z,25.11
2022-11-04T17:08:03.273Z,25.06
2022-11-04T17:10:37.389Z,25.11
2022-11-04T17:13:07.108Z,25.02
2022-11-04T17:15:36.251Z,25.02
2022-11-04T17:18:05.798Z,25.00
2022-11-04T17:20:35.273Z,24.98
2022-11-04T17:23:05.329Z,24.95
2022-11-04T17:25:34.649Z,24.92
2022-11-04T17:28:04.321Z,24.92
2022-11-04T17:30:34.044Z,24.89
2022-11-04T17:33:07.720Z,24.88
2022-11-04T17:35:39.822Z,24.94
2022-11-04T17:38:09.261Z,24.90
2022-11-04T17:40:58.675Z,24.84
2022-11-04T17:43:46.510Z,24.84
2022-11-04T17:46:35.703Z,24.90
2022-11-04T17:49:15.866Z,24.84
2022-11-04T17:51:47.817Z,24.85
2022-11-04T17:54:18.197Z,24.78
2022-11-04T17:56:47.371Z,24.68
2022-11-04T17:59:17.642Z,24.66
2022-11-04T18:01:47.288Z,24.62
2022-11-04T18:04:20.280Z,24.67
2022-11-04T18:06:51.493Z,24.56
2022-11-04T18:09:21.033Z,24.56
2022-11-04T18:12:09.154Z,24.54
2022-11-04T18:14:38.338Z,24.57
2022-11-04T18:17:07.623Z,24.53
2022-11-04T18:19:37.084Z,24.53
2022-11-04T18:22:06.377Z,24.53
2022-11-04T18:24:35.857Z,24.49
2022-11-04T18:27:05.312Z,24.49
2022-11-04T18:29:35.786Z,24.52
2022-11-04T18:32:05.066Z,24.51
2022-11-04T18:34:34.845Z,24.51
2022-11-04T18:37:04.727Z,24.50
2022-11-04T18:39:34.514Z,24.49
2022-11-04T18:42:03.651Z,24.48
2022-11-04T18:44:32.783Z,24.47
2022-11-04T18:47:02.549Z,24.33
2022-11-04T18:49:31.964Z,24.42
2022-11-04T18:52:01.273Z,24.42
2022-11-04T18:54:30.681Z,24.41
2022-11-04T18:56:59.797Z,24.39
2022-11-04T18:59:28.857Z,24.32
2022-11-04T19:01:58.375Z,24.33
2022-11-04T19:04:27.643Z,24.34
2022-11-04T19:06:57.949Z,24.37
2022-11-04T19:12:36.535Z,24.37
2022-11-04T19:15:06.012Z,24.32
2022-11-04T19:17:39.820Z,24.36
2022-11-04T19:20:12.503Z,24.31
2022-11-04T19:22:42.579Z,24.27
2022-11-04T19:25:12.933Z,24.31
2022-11-04T19:27:43.098Z,24.30
2022-11-04T19:30:12.925Z,24.30
2022-11-04T19:32:41.964Z,24.28
2022-11-04T19:35:11.314Z,24.28
2022-11-04T19:37:40.615Z,24.30
2022-11-04T19:40:12.005Z,24.31
2022-11-04T19:43:00.307Z,24.31
2022-11-04T19:45:31.718Z,24.28
2022-11-04T19:48:01.014Z,24.28
2022-11-04T19:50:30.195Z,24.22
2022-11-04T19:52:59.125Z,24.19
2022-11-04T19:55:29.070Z,24.18
2022-11-04T19:57:58.046Z,24.17
2022-11-04T20:00:27.555Z,24.16
2022-11-04T20:02:57.086Z,24.16
2022-11-04T20:05:27.130Z,24.17
2022-11-04T20:07:57.602Z,24.14
2022-11-04T20:10:30.180Z,24.11
2022-11-04T20:13:17.765Z,24.04
2022-11-04T20:15:47.272Z,24.06
2022-11-04T20:18:16.305Z,24.05
2022-11-04T20:20:46.273Z,24.00
2022-11-04T20:23:15.607Z,24.01
2022-11-04T20:25:44.846Z,23.98
2022-11-04T20:28:14.180Z,23.93
2022-11-04T20:30:43.763Z,23.94
2022-11-04T20:33:12.903Z,23.91
2022-11-04T20:35:42.165Z,23.96
2022-11-04T20:38:11.815Z,23.96
2022-11-04T20:40:41.242Z,23.94
2022-11-04T20:43:10.577Z,23.90
2022-11-04T20:45:40.671Z,23.90
2022-11-04T20:48:10.439Z,23.78
2022-11-04T20:50:39.683Z,23.78
2022-11-04T20:53:08.860Z,23.78
2022-11-04T20:55:41.650Z,23.77
2022-11-04T20:58:11.002Z,23.71
2022-11-04T21:00:40.339Z,23.67
2022-11-04T21:03:09.458Z,23.71
2022-11-04T21:05:38.559Z,23.68
2022-11-04T21:08:07.751Z,23.67
2022-11-04T21:10:38.415Z,23.72
2022-11-04T21:13:07.506Z,23.70
2022-11-04T21:15:42.181Z,23.67
2022-11-04T21:18:13.802Z,23.67
2022-11-04T21:20:44.152Z,23.63
2022-11-04T21:23:15.328Z,23.68
2022-11-04T21:25:58.388Z,23.70
2022-11-04T21:28:28.012Z,23.65
2022-11-04T21:31:02.794Z,23.62
2022-11-04T21:33:31.928Z,23.61
2022-11-04T21:36:08.391Z,23.70
2022-11-04T21:38:37.598Z,23.61
2022-11-04T21:41:11.086Z,23.69
2022-11-04T21:43:40.316Z,23.57
2022-11-04T21:46:14.860Z,23.63
2022-11-04T21:48:44.519Z,23.55
2022-11-04T21:51:16.532Z,23.63
2022-11-04T21:53:46.622Z,23.62
2022-11-04T21:56:22.009Z,23.69
2022-11-04T21:58:53.616Z,23.67
2022-11-04T22:01:25.971Z,23.68
2022-11-04T22:03:57.755Z,23.64
2022-11-04T22:06:33.601Z,23.58
2022-11-04T22:09:06.640Z,23.55
2022-11-04T22:11:40.647Z,23.54
2022-11-04T22:14:10.310Z,23.52
2022-11-04T22:16:40.944Z,23.52
2022-11-04T22:19:14.651Z,23.53
2022-11-04T22:21:46.418Z,23.53
2022-11-04T22:24:18.132Z,23.51
2022-11-04T22:26:48.756Z,23.49
2022-11-04T22:29:18.230Z,23.49
2022-11-04T22:31:47.253Z,23.47
2022-11-04T22:34:16.324Z,23.46
2022-11-04T22:36:45.574Z,23.47
2022-11-04T22:39:17.051Z,23.47
2022-11-04T22:41:47.348Z,23.48
2022-11-04T22:44:16.633Z,23.43
2022-11-04T22:46:45.684Z,23.44
2022-11-04T22:49:15.801Z,23.40
2022-11-04T22:51:45.321Z,23.43
2022-11-04T22:54:14.460Z,23.42
2022-11-04T22:56:43.438Z,23.42
2022-11-04T22:59:13.408Z,23.41
2022-11-04T23:01:43.052Z,23.39
2022-11-04T23:04:13.427Z,23.39
2022-11-04T23:06:42.833Z,23.37
2022-11-04T23:09:14.674Z,23.39
2022-11-04T23:12:02.124Z,23.32
2022-11-04T23:14:46.403Z,23.28
2022-11-04T23:17:43.598Z,23.38
2022-11-04T23:20:16.622Z,23.30
2022-11-04T23:23:04.493Z,23.25
2022-11-04T23:25:33.697Z,23.21
2022-11-04T23:28:21.113Z,23.19
2022-11-04T23:30:53.102Z,23.22
2022-11-04T23:33:42.232Z,23.18
2022-11-04T23:36:30.515Z,23.16
2022-11-04T23:38:59.732Z,23.17
2022-11-04T23:41:47.961Z,23.11
2022-11-04T23:44:37.477Z,23.03
2022-11-04T23:47:24.904Z,22.98
2022-11-04T23:50:12.222Z,23.00
2022-11-04T23:52:59.709Z,22.95
2022-11-04T23:55:47.721Z,22.96
2022-11-04T23:58:35.167Z,22.95
